Detroit, Michigan
Current Conditions -  °F | °C
As of 9:00 PM on Friday 31 Oct 2014 (Local Time) from CYQG Reporting Station
Light Snow Light Snow  
Wind Chill: 23°   Ceiling: 1500
Heat Index: 36°   Visibility: 8mi
Dew Point: 34°   Wind: 25mph
Humidity: 93%   Direction: 350°N
Pressure: 30.01"   Gusts: 36mph
Location:  42.33°N, 83.05°W
Report Text: CYQG 010100Z 35022G31KT 8SM -RASN FEW010 OVC015 02/01 A3001 RMK SF2SC6 SLP168
Loading
Personal Weather Stations






























Interactive Weather Map New forecast layout! Learn more

10-Day Weather Forecast

Advertisements
Track Severe Weather on mobile